Time;durP1;ratioP1;P1;durP2;ratioP2;P2;SDS_P1;SDS_P2;PMS_P1;PMS_P2;Temp;Humidity;BMP_temperature;BMP_pressure;BME280_temperature;BME280_humidity;BME280_pressure;Samples;Min_cycle;Max_cycle;Signal;HPM_P1;HPM_P2
2023/04/12 00:00:08;;;;;;;1.85;0.50;;;5.90;99.90;;;;;;5087152;28;20048;-84
2023/04/12 00:02:36;;;;;;;3.05;0.55;;;5.80;99.90;;;;;;5095296;28;20044;-84
2023/04/12 00:05:02;;;;;;;1.27;0.32;;;6.50;99.90;;;;;;5086475;28;20083;-84
2023/04/12 00:07:28;;;;;;;1.80;0.45;;;5.80;99.90;;;;;;5091004;28;20068;-84
2023/04/12 00:09:57;;;;;;;4.07;0.60;;;5.90;99.90;;;;;;5091815;28;20226;-84
2023/04/12 00:12:23;;;;;;;1.35;0.40;;;5.90;99.90;;;;;;5088549;28;20078;-84
2023/04/12 00:14:49;;;;;;;0.60;0.40;;;5.90;99.90;;;;;;5093834;28;20048;-84
2023/04/12 00:17:15;;;;;;;0.43;0.30;;;7.30;99.90;;;;;;5076453;28;20502;-84
2023/04/12 00:19:41;;;;;;;865.93;379.20;;;5.90;99.90;;;;;;5091240;28;20116;-84
2023/04/12 00:22:10;;;;;;;3.92;1.10;;;7.40;99.90;;;;;;5084465;28;20471;-84
2023/04/12 00:24:39;;;;;;;2.08;0.52;;;5.90;99.90;;;;;;5087350;28;20032;-84
2023/04/12 00:27:08;;;;;;;2.03;0.40;;;6.90;99.90;;;;;;5096325;28;20475;-84
2023/04/12 00:29:33;;;;;;;1.88;0.40;;;5.90;99.90;;;;;;5094227;28;20045;-84
2023/04/12 00:32:00;;;;;;;1.33;0.30;;;6.00;99.90;;;;;;5090076;28;20097;-85
2023/04/12 00:34:32;;;;;;;4.35;0.50;;;5.90;99.90;;;;;;5084292;28;20032;-85
2023/04/12 00:36:59;;;;;;;1.40;0.38;;;6.80;99.90;;;;;;5094970;28;20040;-85
2023/04/12 00:39:26;;;;;;;2.25;0.30;;;6.00;99.90;;;;;;5086015;28;20052;-85
2023/04/12 00:41:52;;;;;;;0.82;0.40;;;6.00;99.90;;;;;;5095535;28;21024;-85
2023/04/12 00:44:18;;;;;;;1.25;0.35;;;6.10;99.90;;;;;;5093750;28;20523;-85
2023/04/12 00:46:47;;;;;;;2.30;0.50;;;6.10;99.90;;;;;;5084733;28;20048;-85
2023/04/12 00:49:15;;;;;;;2.50;0.40;;;6.10;99.90;;;;;;5086581;28;20520;-84
2023/04/12 00:51:42;;;;;;;1.75;0.50;;;6.20;99.90;;;;;;5092095;28;20040;-85
2023/04/12 00:54:07;;;;;;;0.90;0.47;;;7.20;99.90;;;;;;5084691;28;20035;-85
2023/04/12 00:56:34;;;;;;;2.38;0.63;;;6.30;99.90;;;;;;5083419;28;20044;-85
2023/04/12 00:59:00;;;;;;;1.15;0.50;;;5.80;99.90;;;;;;5082624;28;20396;-85
2023/04/12 01:01:27;;;;;;;1.55;0.45;;;6.20;99.90;;;;;;5090984;28;20466;-85
2023/04/12 01:03:59;;;;;;;2.72;0.50;;;6.20;99.90;;;;;;5090084;28;20097;-85
2023/04/12 01:06:40;;;;;;;0.90;0.40;;;6.80;99.90;;;;;;5087260;28;20091;-84
2023/04/12 01:09:35;;;;;;;2.00;0.50;;;6.40;99.90;;;;;;5102967;28;20068;-85
2023/04/12 01:12:36;;;;;;;1.95;0.50;;;6.40;99.90;;;;;;5008128;28;20054;-84
2023/04/12 01:15:10;;;;;;;404.50;185.57;;;6.40;99.90;;;;;;4970211;28;20081;-85
2023/04/12 01:18:15;;;;;;;2.63;0.50;;;6.40;99.90;;;;;;4969662;28;20051;-84
2023/04/12 01:20:56;;;;;;;1.67;0.40;;;6.50;99.90;;;;;;4897894;29;20426;-84
2023/04/12 01:23:46;;;;;;;2.03;0.60;;;6.50;99.90;;;;;;4910208;29;20060;-84
2023/04/12 01:26:26;;;;;;;1.63;0.50;;;6.60;99.90;;;;;;4882260;29;20089;-84
2023/04/12 01:28:53;;;;;;;2.08;0.63;;;6.60;99.90;;;;;;4897794;29;20189;-84
2023/04/12 01:31:20;;;;;;;1.35;0.50;;;6.60;99.90;;;;;;4897962;29;20442;-84
2023/04/12 01:33:48;;;;;;;1.35;0.50;;;6.60;99.90;;;;;;4897469;29;20049;-84
2023/04/12 01:36:26;;;;;;;2.20;0.60;;;6.70;99.90;;;;;;4897665;29;20056;-84
2023/04/12 01:38:57;;;;;;;5.78;2.90;;;6.30;99.90;;;;;;4897961;29;20052;-84
2023/04/12 01:41:23;;;;;;;1.90;0.57;;;6.70;99.90;;;;;;4905747;29;20084;-83
2023/04/12 01:43:49;;;;;;;2.88;0.60;;;6.70;99.90;;;;;;4881914;29;20105;-84
2023/04/12 01:46:19;;;;;;;2.20;0.50;;;6.90;99.90;;;;;;4904976;29;20060;-84
2023/04/12 01:48:51;;;;;;;4.10;0.85;;;7.90;99.90;;;;;;4914360;29;20134;-84
2023/04/12 01:51:29;;;;;;;2.75;0.50;;;6.80;99.90;;;;;;4934902;28;20050;-84
2023/04/12 01:54:10;;;;;;;2.20;0.57;;;6.90;99.90;;;;;;5013070;28;20042;-84
2023/04/12 01:56:37;;;;;;;1.40;0.50;;;6.90;99.90;;;;;;5064373;28;20129;-85
2023/04/12 01:59:04;;;;;;;5.57;0.70;;;7.10;99.90;;;;;;5094365;28;20118;-85
2023/04/12 02:01:30;;;;;;;1.27;0.70;;;6.90;99.90;;;;;;5089654;28;20471;-84
2023/04/12 02:04:00;;;;;;;3.38;0.70;;;6.90;99.90;;;;;;5083973;28;20123;-84
2023/04/12 02:06:26;;;;;;;1.52;0.40;;;6.90;99.90;;;;;;5093210;28;20040;-84
2023/04/12 02:09:03;;;;;;;3.10;0.60;;;6.90;99.90;;;;;;5094544;28;20041;-84
2023/04/12 02:11:31;;;;;;;3.55;0.55;;;6.90;99.90;;;;;;5084479;28;20043;-84
2023/04/12 02:14:00;;;;;;;2.70;0.68;;;7.00;99.90;;;;;;5092970;28;20079;-84
2023/04/12 02:16:28;;;;;;;3.97;0.60;;;6.70;99.90;;;;;;5093717;28;20042;-84
2023/04/12 02:18:56;;;;;;;2.30;0.68;;;7.00;99.90;;;;;;5085695;28;20044;-84
2023/04/12 02:21:26;;;;;;;828.83;386.80;;;6.90;99.90;;;;;;5092471;28;20483;-84
2023/04/12 02:23:52;;;;;;;3.83;0.55;;;7.00;99.90;;;;;;5094606;28;20387;-84
2023/04/12 02:26:18;;;;;;;3.97;0.73;;;7.00;99.90;;;;;;5093118;28;20047;-84
2023/04/12 02:28:45;;;;;;;1.58;0.43;;;6.70;99.90;;;;;;5092684;28;20067;-84
2023/04/12 02:31:10;;;;;;;1.73;0.60;;;7.00;99.90;;;;;;5085754;28;20115;-84
2023/04/12 02:33:36;;;;;;;0.77;0.43;;;7.00;99.90;;;;;;5091661;28;20063;-84
2023/04/12 02:36:02;;;;;;;2.05;0.60;;;7.00;99.90;;;;;;5082910;28;20101;-84
2023/04/12 02:38:28;;;;;;;2.75;1.27;;;6.90;99.90;;;;;;5084468;28;20040;-84
2023/04/12 02:40:55;;;;;;;4.07;0.65;;;7.00;99.90;;;;;;5093767;28;20503;-84
2023/04/12 02:43:21;;;;;;;4.75;1.00;;;7.10;99.90;;;;;;5092488;28;20063;-84
2023/04/12 02:45:49;;;;;;;4.10;0.70;;;8.20;99.90;;;;;;5085106;28;20040;-84
2023/04/12 02:48:17;;;;;;;1.10;0.80;;;7.10;99.90;;;;;;5094038;28;20036;-85
2023/04/12 02:50:43;;;;;;;3.80;0.60;;;7.10;99.90;;;;;;5091234;28;20052;-85
2023/04/12 02:53:11;;;;;;;0.77;0.52;;;6.80;99.90;;;;;;5072740;28;20045;-85
2023/04/12 02:55:37;;;;;;;1.98;0.60;;;7.20;99.90;;;;;;5090133;28;20498;-85
2023/04/12 02:58:03;;;;;;;3.45;0.70;;;7.20;99.90;;;;;;5083999;28;20124;-84
2023/04/12 03:00:29;;;;;;;4.20;0.60;;;6.50;99.90;;;;;;5093380;28;20047;-85
2023/04/12 03:02:57;;;;;;;2.28;0.80;;;7.40;99.90;;;;;;5083516;28;20370;-85
2023/04/12 03:05:26;;;;;;;4.32;0.70;;;7.30;99.90;;;;;;5093213;28;20047;-84
2023/04/12 03:07:54;;;;;;;2.25;0.80;;;7.30;99.90;;;;;;5093168;28;20044;-85
2023/04/12 03:10:20;;;;;;;2.50;0.60;;;7.50;99.90;;;;;;5085329;28;20499;-85
2023/04/12 03:12:46;;;;;;;7.00;0.98;;;7.30;99.90;;;;;;5090610;28;20056;-85
2023/04/12 03:15:12;;;;;;;4.82;0.80;;;7.30;99.90;;;;;;5077657;28;20048;-85
2023/04/12 03:17:41;;;;;;;23.38;7.32;;;7.40;99.90;;;;;;5093361;28;20036;-85
2023/04/12 03:20:08;;;;;;;4.22;0.70;;;7.40;99.90;;;;;;5079775;28;20043;-85
2023/04/12 03:22:35;;;;;;;1.88;0.60;;;7.40;99.90;;;;;;5056071;28;20043;-85
2023/04/12 03:25:06;;;;;;;2.92;0.70;;;7.30;99.90;;;;;;5089404;28;20048;-85
2023/04/12 03:27:32;;;;;;;2.53;0.90;;;7.40;99.90;;;;;;5084483;28;20085;-85
2023/04/12 03:29:58;;;;;;;2.78;0.93;;;7.50;99.90;;;;;;5082871;28;20044;-85
2023/04/12 03:32:24;;;;;;;3.28;0.82;;;7.50;99.90;;;;;;5091915;28;20036;-85
2023/04/12 03:34:52;;;;;;;4.65;0.70;;;7.40;99.90;;;;;;5083254;28;20484;-84
2023/04/12 03:37:18;;;;;;;1.75;0.70;;;7.40;99.90;;;;;;5091496;28;20043;-85
2023/04/12 03:39:46;;;;;;;2.83;0.60;;;7.50;99.90;;;;;;5086100;28;20400;-85
2023/04/12 03:42:13;;;;;;;3.40;0.70;;;7.40;99.90;;;;;;5090470;28;20044;-84
2023/04/12 03:44:39;;;;;;;3.15;0.70;;;7.90;99.90;;;;;;5083089;28;20058;-85
2023/04/12 03:47:05;;;;;;;2.40;0.50;;;8.50;99.90;;;;;;5084053;28;20048;-85
2023/04/12 03:49:31;;;;;;;3.67;0.60;;;7.50;99.90;;;;;;5087126;28;20033;-85
2023/04/12 03:51:57;;;;;;;1.88;0.70;;;8.40;99.90;;;;;;5087979;28;20127;-85
2023/04/12 03:54:23;;;;;;;2.50;0.60;;;7.50;99.90;;;;;;5074975;28;20094;-86
2023/04/12 03:56:49;;;;;;;0.90;0.40;;;7.50;99.90;;;;;;5091518;28;20146;-84
2023/04/12 03:59:17;;;;;;;1.05;0.50;;;7.60;99.90;;;;;;5082736;28;20040;-85
2023/04/12 04:01:43;;;;;;;1.10;0.73;;;7.60;99.90;;;;;;5078173;28;20080;-85
2023/04/12 04:04:09;;;;;;;4.32;0.60;;;7.60;99.90;;;;;;5087444;28;20075;-84
2023/04/12 04:06:34;;;;;;;258.70;210.00;;;7.50;99.90;;;;;;5092374;28;20040;-85
2023/04/12 04:09:00;;;;;;;1.90;0.47;;;7.50;99.90;;;;;;5084108;28;20055;-85
2023/04/12 04:11:31;;;;;;;2.78;0.40;;;7.50;99.90;;;;;;5090614;28;20040;-85
2023/04/12 04:13:59;;;;;;;0.82;0.40;;;7.50;99.90;;;;;;5084750;28;20040;-85
2023/04/12 04:16:29;;;;;;;3.22;0.60;;;7.50;99.90;;;;;;5071133;28;20340;-85
2023/04/12 04:18:55;;;;;;;0.60;0.40;;;7.50;99.90;;;;;;5084907;28;20496;-85
2023/04/12 04:21:21;;;;;;;1.50;0.50;;;7.40;99.90;;;;;;5082519;28;20052;-84
2023/04/12 04:23:47;;;;;;;1.58;0.50;;;7.50;99.90;;;;;;5087523;28;20032;-85
2023/04/12 04:26:14;;;;;;;1.85;0.47;;;7.70;99.90;;;;;;5080076;28;20047;-84
2023/04/12 04:28:43;;;;;;;1.35;0.50;;;7.40;99.90;;;;;;5092266;28;20067;-84
2023/04/12 04:31:10;;;;;;;0.95;0.47;;;7.50;99.90;;;;;;5082791;28;20058;-84
2023/04/12 04:33:37;;;;;;;2.30;0.60;;;7.40;99.90;;;;;;5091302;28;20048;-84
2023/04/12 04:36:04;;;;;;;3.05;0.50;;;7.40;99.90;;;;;;5084545;28;20066;-84
2023/04/12 04:38:31;;;;;;;1.33;0.50;;;7.40;99.90;;;;;;5082282;28;20453;-84
2023/04/12 04:41:04;;;;;;;1.70;0.60;;;7.40;99.90;;;;;;5086164;28;20044;-85
2023/04/12 04:43:30;;;;;;;2.17;0.70;;;7.40;99.90;;;;;;5082361;28;20052;-85
2023/04/12 04:45:59;;;;;;;1.00;0.52;;;7.30;99.90;;;;;;5087804;28;20127;-86
2023/04/12 04:48:25;;;;;;;2.10;0.55;;;7.40;99.90;;;;;;5095440;28;20101;-85
2023/04/12 04:50:52;;;;;;;3.08;0.80;;;8.40;99.90;;;;;;5088321;28;20104;-86
2023/04/12 04:53:20;;;;;;;1.30;0.60;;;7.50;99.90;;;;;;5087298;28;20041;-85
2023/04/12 04:55:46;;;;;;;2.80;0.75;;;7.30;99.90;;;;;;5090993;28;20040;-85
2023/04/12 04:58:13;;;;;;;2.72;0.70;;;7.40;99.90;;;;;;5089109;28;20057;-85
2023/04/12 05:00:43;;;;;;;2.55;0.80;;;7.40;99.90;;;;;;5092427;28;20054;-86
2023/04/12 05:03:14;;;;;;;2.00;0.70;;;8.60;99.90;;;;;;5083260;28;20065;-85
2023/04/12 05:05:43;;;;;;;2.20;1.05;;;8.70;99.90;;;;;;5092632;28;20043;-86
2023/04/12 05:08:09;;;;;;;1.67;0.52;;;7.30;99.90;;;;;;5088074;28;20073;-85
2023/04/12 05:10:35;;;;;;;1.35;0.70;;;7.40;99.90;;;;;;5083591;28;20067;-85
2023/04/12 05:13:01;;;;;;;3.42;1.15;;;7.30;99.90;;;;;;5079504;28;20487;-88
2023/04/12 05:15:29;;;;;;;1.60;0.50;;;7.40;99.90;;;;;;5093126;28;20051;-85
2023/04/12 05:17:54;;;;;;;815.10;363.23;;;7.30;99.90;;;;;;5083185;28;20126;-85
2023/04/12 05:20:20;;;;;;;2.97;0.70;;;7.30;99.90;;;;;;5090493;28;20101;-85
2023/04/12 05:22:46;;;;;;;4.68;0.95;;;7.30;99.90;;;;;;5094481;28;20118;-86
2023/04/12 05:25:12;;;;;;;1.98;0.73;;;7.20;99.90;;;;;;5089708;28;20378;-85
2023/04/12 05:27:38;;;;;;;2.97;0.85;;;7.20;99.90;;;;;;5093717;28;20174;-85
2023/04/12 05:30:05;;;;;;;2.95;0.80;;;7.30;99.90;;;;;;5091164;28;20107;-84
2023/04/12 05:32:30;;;;;;;1.63;0.80;;;7.20;99.90;;;;;;5089223;28;20047;-85
2023/04/12 05:34:56;;;;;;;3.17;0.90;;;7.80;99.90;;;;;;5085610;28;20106;-85
2023/04/12 05:37:22;;;;;;;758.15;468.50;;;7.20;99.90;;;;;;5089021;28;20040;-85
2023/04/12 05:39:48;;;;;;;2.08;0.70;;;7.20;99.90;;;;;;5084298;28;20115;-85
2023/04/12 05:42:13;;;;;;;15.00;3.42;;;7.20;99.90;;;;;;5082645;28;20110;-86
2023/04/12 05:44:40;;;;;;;836.60;481.60;;;7.20;99.90;;;;;;5081878;28;20052;-85
2023/04/12 05:47:08;;;;;;;1.30;0.60;;;7.10;99.90;;;;;;5089605;28;20044;-86
2023/04/12 05:49:34;;;;;;;1.58;0.82;;;7.20;99.90;;;;;;5089275;28;20044;-84
2023/04/12 05:52:00;;;;;;;1.40;0.75;;;7.10;99.90;;;;;;5084758;28;20059;-85
2023/04/12 05:54:26;;;;;;;0.95;0.70;;;7.20;99.90;;;;;;5094590;28;20380;-84
2023/04/12 05:56:54;;;;;;;3.13;1.00;;;7.20;99.90;;;;;;5089714;28;20044;-86
2023/04/12 05:59:23;;;;;;;4.95;1.00;;;7.50;99.90;;;;;;5089151;28;20044;-86
2023/04/12 06:01:51;;;;;;;1.88;0.60;;;7.20;99.90;;;;;;5089590;28;20052;-85
2023/04/12 06:04:17;;;;;;;3.55;0.90;;;7.20;99.90;;;;;;5086850;28;20032;-86
2023/04/12 06:06:43;;;;;;;4.15;0.90;;;7.20;99.90;;;;;;5084601;28;20454;-85
2023/04/12 06:09:09;;;;;;;2.90;0.80;;;7.80;99.90;;;;;;5090019;28;20040;-85
2023/04/12 06:11:37;;;;;;;1.55;0.70;;;7.20;99.90;;;;;;5087141;28;20100;-85
2023/04/12 06:14:03;;;;;;;4.22;0.80;;;7.60;99.90;;;;;;5092364;28;20109;-85
2023/04/12 06:16:29;;;;;;;3.13;0.60;;;7.30;99.90;;;;;;5092246;28;20087;-86
2023/04/12 06:18:55;;;;;;;2.65;0.80;;;7.70;99.90;;;;;;5091262;28;20044;-86
2023/04/12 06:21:21;;;;;;;4.95;0.70;;;8.40;99.90;;;;;;5089883;28;20048;-87
2023/04/12 06:23:49;;;;;;;1.25;0.60;;;7.30;99.90;;;;;;5082144;28;20400;-85
2023/04/12 06:26:15;;;;;;;3.28;0.80;;;6.90;99.90;;;;;;5085453;28;20047;-85
2023/04/12 06:28:41;;;;;;;2.70;0.73;;;7.20;99.90;;;;;;5069576;28;20040;-86
2023/04/12 06:31:07;;;;;;;3.10;0.57;;;7.20;99.90;;;;;;5091305;28;20131;-86
2023/04/12 06:33:38;;;;;;;1.17;0.52;;;7.20;99.90;;;;;;5074326;28;20392;-85
2023/04/12 06:36:07;;;;;;;2.70;0.80;;;7.20;99.90;;;;;;5082597;28;20155;-86
2023/04/12 06:38:36;;;;;;;2.13;0.50;;;7.30;99.90;;;;;;5092741;28;20074;-86
2023/04/12 06:41:02;;;;;;;1.35;0.63;;;7.30;99.90;;;;;;5085247;28;20040;-84
2023/04/12 06:43:30;;;;;;;1.63;0.60;;;7.30;99.90;;;;;;5087665;28;20396;-83
2023/04/12 06:46:01;;;;;;;3.10;0.70;;;7.30;99.90;;;;;;5074289;28;20088;-84
2023/04/12 06:48:27;;;;;;;1.45;1.35;;;7.20;99.90;;;;;;5074228;28;20040;-85
2023/04/12 06:50:56;;;;;;;1.95;0.70;;;7.30;99.90;;;;;;5078197;28;20075;-84
2023/04/12 06:53:23;;;;;;;1.50;0.50;;;7.20;99.90;;;;;;5083344;28;20035;-84
2023/04/12 06:55:52;;;;;;;0.90;0.60;;;7.30;99.90;;;;;;5091625;28;20047;-87
2023/04/12 06:58:18;;;;;;;1.38;0.50;;;7.30;99.90;;;;;;5084356;28;20105;-86
2023/04/12 07:00:47;;;;;;;1.95;0.57;;;7.50;99.90;;;;;;5083920;28;20048;-85
2023/04/12 07:03:13;;;;;;;2.78;0.80;;;7.20;99.90;;;;;;5066272;28;20396;-86
2023/04/12 07:05:39;;;;;;;1.75;0.70;;;7.30;99.90;;;;;;5083669;28;20052;-87
2023/04/12 07:08:05;;;;;;;2.95;0.70;;;7.40;99.90;;;;;;5091757;28;20079;-84
2023/04/12 07:10:31;;;;;;;2.13;0.70;;;7.30;99.90;;;;;;5091275;28;20051;-84
2023/04/12 07:13:01;;;;;;;1.17;0.68;;;8.80;99.90;;;;;;5091914;28;20488;-83
2023/04/12 07:15:27;;;;;;;3.13;0.60;;;7.30;99.90;;;;;;5083177;28;20083;-83
2023/04/12 07:17:55;;;;;;;4.63;0.95;;;7.40;99.90;;;;;;5078981;28;20112;-83
2023/04/12 07:20:22;;;;;;;2.97;0.60;;;7.60;99.90;;;;;;5090303;28;20043;-85
2023/04/12 07:22:50;;;;;;;2.20;0.63;;;7.40;99.90;;;;;;5086014;28;20051;-85
2023/04/12 07:25:16;;;;;;;0.98;0.40;;;7.30;99.90;;;;;;5083391;28;20040;-83
2023/04/12 07:27:49;;;;;;;2.15;0.50;;;7.30;99.90;;;;;;5092097;28;20031;-86
2023/04/12 07:30:15;;;;;;;1.10;0.60;;;7.30;99.90;;;;;;5091837;28;20032;-85
2023/04/12 07:32:44;;;;;;;3.58;0.60;;;7.30;99.90;;;;;;5084091;28;20044;-83
2023/04/12 07:35:10;;;;;;;2.03;0.70;;;7.40;99.90;;;;;;5093192;28;20036;-85
2023/04/12 07:37:36;;;;;;;2.10;0.57;;;7.40;99.90;;;;;;5091612;28;20037;-84
2023/04/12 07:40:04;;;;;;;1.10;0.50;;;7.40;99.90;;;;;;5093102;28;20044;-85
2023/04/12 07:42:30;;;;;;;2.50;0.63;;;7.40;99.90;;;;;;5089927;28;20040;-84
2023/04/12 07:45:01;;;;;;;1.52;0.70;;;7.40;99.90;;;;;;5085463;28;20121;-85
2023/04/12 07:47:27;;;;;;;3.45;1.00;;;7.40;99.90;;;;;;5081665;28;20055;-84
2023/04/12 07:49:56;;;;;;;1.10;0.60;;;7.40;99.90;;;;;;5077681;28;20051;-86
2023/04/12 07:52:26;;;;;;;1.35;0.63;;;7.40;99.90;;;;;;5090699;28;20051;-86
2023/04/12 07:54:53;;;;;;;0.60;0.40;;;7.40;99.90;;;;;;5084130;28;20054;-85
2023/04/12 07:57:20;;;;;;;1.83;0.60;;;7.40;99.90;;;;;;5093194;28;20039;-86
2023/04/12 07:59:46;;;;;;;6.22;0.80;;;7.20;99.90;;;;;;5080143;28;20032;-85
2023/04/12 08:02:23;;;;;;;0.90;0.50;;;7.50;99.90;;;;;;5088626;28;20110;-90
2023/04/12 08:04:53;;;;;;;0.73;0.50;;;7.60;99.90;;;;;;5084647;28;20048;-84
2023/04/12 08:07:21;;;;;;;1.65;0.50;;;8.10;99.90;;;;;;5075269;28;20055;-84
2023/04/12 08:09:47;;;;;;;0.88;0.50;;;7.20;99.90;;;;;;5093396;28;20510;-86
2023/04/12 08:12:14;;;;;;;2.17;0.40;;;6.80;99.90;;;;;;5094016;28;20036;-83
2023/04/12 08:14:45;;;;;;;1.52;0.50;;;8.90;99.90;;;;;;5090639;28;20044;-83
2023/04/12 08:17:10;;;;;;;0.82;0.43;;;7.60;99.90;;;;;;5088845;28;20090;-83
2023/04/12 08:19:36;;;;;;;3.00;0.75;;;7.60;99.90;;;;;;5086124;28;20063;-83
2023/04/12 08:22:02;;;;;;;0.75;0.60;;;7.60;99.90;;;;;;5093784;28;20369;-83
2023/04/12 08:24:28;;;;;;;1.75;0.43;;;7.70;99.90;;;;;;5095836;28;20411;-82
2023/04/12 08:26:54;;;;;;;3.33;0.47;;;7.70;99.90;;;;;;5095832;28;20044;-83
2023/04/12 08:29:21;;;;;;;1.38;0.50;;;7.80;99.90;;;;;;5088265;28;20040;-83
2023/04/12 08:31:50;;;;;;;2.10;0.32;;;8.00;99.90;;;;;;5084986;28;20127;-83
2023/04/12 08:34:16;;;;;;;3.30;0.70;;;8.20;99.90;;;;;;5090928;28;20098;-83
2023/04/12 08:36:42;;;;;;;0.38;0.38;;;8.10;99.90;;;;;;5083127;28;20033;-83
2023/04/12 08:39:08;;;;;;;2.00;0.80;;;7.90;99.90;;;;;;5093590;28;20487;-86
2023/04/12 08:41:34;;;;;;;0.45;0.38;;;7.90;99.90;;;;;;5094081;28;20044;-83
2023/04/12 08:44:01;;;;;;;1.02;0.40;;;8.00;99.90;;;;;;5089329;28;20057;-84
2023/04/12 08:46:28;;;;;;;1.40;0.60;;;8.00;99.90;;;;;;5086396;28;20123;-85
2023/04/12 08:48:56;;;;;;;0.73;0.43;;;8.10;99.90;;;;;;5095389;28;20395;-83
2023/04/12 08:51:22;;;;;;;0.95;0.55;;;8.10;99.90;;;;;;5080880;28;20045;-83
2023/04/12 08:53:48;;;;;;;1.75;1.17;;;8.10;99.90;;;;;;5082722;28;20373;-84
2023/04/12 08:56:15;;;;;;;0.45;0.40;;;8.20;99.90;;;;;;5092644;28;20039;-83
2023/04/12 08:58:45;;;;;;;1.77;0.47;;;8.80;99.90;;;;;;5084203;28;20459;-82
2023/04/12 09:01:12;;;;;;;358.60;159.43;;;8.20;99.90;;;;;;5086970;28;20044;-81
2023/04/12 09:03:39;;;;;;;1.70;0.40;;;7.60;99.90;;;;;;5086141;28;20047;-82
2023/04/12 09:06:05;;;;;;;1.65;0.45;;;8.40;99.90;;;;;;5094043;28;20036;-80
2023/04/12 09:08:31;;;;;;;0.95;0.50;;;8.20;99.90;;;;;;5089370;28;20047;-84
2023/04/12 09:10:57;;;;;;;0.30;0.30;;;8.30;99.90;;;;;;5083637;28;20033;-82
2023/04/12 09:13:35;;;;;;;0.75;0.35;;;8.20;99.90;;;;;;5086784;28;20040;-82
2023/04/12 09:16:02;;;;;;;0.85;0.40;;;8.20;99.90;;;;;;5085288;28;20046;-85
2023/04/12 09:18:28;;;;;;;0.63;0.40;;;8.30;99.90;;;;;;5094390;28;20391;-83
2023/04/12 09:21:07;;;;;;;0.73;0.47;;;8.60;99.90;;;;;;5090736;28;20109;-81
2023/04/12 09:23:36;;;;;;;0.47;0.40;;;8.40;99.90;;;;;;5091951;28;20043;-81
2023/04/12 09:26:03;;;;;;;1.13;0.50;;;8.40;99.90;;;;;;5089644;28;20047;-81
2023/04/12 09:28:29;;;;;;;0.40;0.40;;;8.50;99.90;;;;;;5091519;28;20051;-81
2023/04/12 09:30:57;;;;;;;0.93;0.50;;;8.60;99.90;;;;;;5085819;28;20178;-82
2023/04/12 09:33:36;;;;;;;1.88;0.60;;;8.60;99.90;;;;;;5078969;28;20044;-82
2023/04/12 09:36:04;;;;;;;300.35;173.65;;;8.60;99.90;;;;;;5088436;28;20032;-86
2023/04/12 09:38:30;;;;;;;1.00;0.73;;;8.60;99.90;;;;;;5092462;28;20040;-82
2023/04/12 09:40:57;;;;;;;0.52;0.50;;;9.70;99.90;;;;;;5086943;28;20039;-82
2023/04/12 09:43:36;;;;;;;1.23;0.60;;;8.70;99.90;;;;;;5085342;28;20043;-85
2023/04/12 09:46:13;;;;;;;1.92;0.65;;;8.70;99.90;;;;;;5085599;28;20079;-83
2023/04/12 09:48:40;;;;;;;0.73;0.60;;;8.70;99.90;;;;;;5094282;28;20044;-89
2023/04/12 09:51:06;;;;;;;0.82;0.70;;;8.80;99.90;;;;;;5093897;28;20051;-82
2023/04/12 09:53:41;;;;;;;1.55;0.60;;;9.10;99.90;;;;;;5093267;28;20448;-82
2023/04/12 09:56:09;;;;;;;1.55;0.80;;;9.10;99.90;;;;;;5088310;28;20040;-83
2023/04/12 09:58:37;;;;;;;1.88;0.80;;;9.30;99.90;;;;;;5086666;28;20044;-83
2023/04/12 10:01:08;;;;;;;1.05;0.95;;;9.40;99.90;;;;;;5085033;28;20108;-82
2023/04/12 10:03:34;;;;;;;1.08;0.70;;;9.60;99.90;;;;;;5085946;28;20047;-82
2023/04/12 10:06:03;;;;;;;1.38;0.93;;;10.50;99.90;;;;;;5087192;28;20395;-83
2023/04/12 10:08:30;;;;;;;2.67;0.82;;;9.70;99.90;;;;;;5094066;28;20028;-82
2023/04/12 10:10:56;;;;;;;1.73;0.80;;;10.00;99.90;;;;;;5078108;28;20052;-82
2023/04/12 10:13:22;;;;;;;1.50;1.20;;;10.30;99.90;;;;;;5085646;28;20032;-82
2023/04/12 10:15:52;;;;;;;1.30;0.90;;;10.60;99.90;;;;;;5092519;28;20036;-82
2023/04/12 10:18:18;;;;;;;3.75;1.42;;;10.80;99.90;;;;;;5087297;28;20032;-85
2023/04/12 10:20:46;;;;;;;2.15;1.08;;;11.00;99.90;;;;;;5085596;28;20121;-83
2023/04/12 10:23:15;;;;;;;1.65;1.30;;;12.30;99.90;;;;;;5086328;28;20044;-89
2023/04/12 10:25:44;;;;;;;2.58;1.27;;;11.30;99.90;;;;;;5089829;28;20092;-81
2023/04/12 10:28:18;;;;;;;2.80;1.40;;;11.50;99.90;;;;;;5085704;28;20039;-83
2023/04/12 10:30:47;;;;;;;192.70;102.13;;;11.20;99.90;;;;;;5087097;28;20078;-82
2023/04/12 10:33:15;;;;;;;9.27;2.15;;;11.70;99.90;;;;;;5093695;28;20068;-83
2023/04/12 10:36:07;;;;;;;4.80;2.85;;;11.70;99.90;;;;;;5086265;28;20046;-84
2023/04/12 10:39:06;;;;;;;13.40;7.72;;;11.90;99.90;;;;;;5105025;28;20388;-83
2023/04/12 10:41:31;;;;;;;1.88;1.02;;;12.00;99.90;;;;;;5093122;28;20083;-82
2023/04/12 10:44:25;;;;;;;2.47;1.10;;;12.10;99.90;;;;;;5083658;28;20138;-83
2023/04/12 10:46:51;;;;;;;4.40;1.83;;;12.10;99.90;;;;;;5082446;28;20107;-84
2023/04/12 10:49:17;;;;;;;4.18;1.55;;;12.10;99.90;;;;;;5082807;28;20186;-83
2023/04/12 10:52:01;;;;;;;1.63;0.93;;;12.20;99.90;;;;;;5089621;28;20036;-84
2023/04/12 10:54:36;;;;;;;1.38;0.90;;;12.40;99.90;;;;;;5087322;28;20040;-84
2023/04/12 10:57:03;;;;;;;3.50;1.70;;;12.70;99.90;;;;;;5085349;28;20484;-85
2023/04/12 10:59:58;;;;;;;3.40;1.40;;;13.00;99.90;;;;;;5090850;28;20050;-86
2023/04/12 11:02:24;;;;;;;6.20;1.52;;;12.90;99.90;;;;;;5084726;28;20097;-82
2023/04/12 11:05:07;;;;;;;1.63;0.90;;;13.10;99.90;;;;;;5091036;28;20135;-84
2023/04/12 11:07:44;;;;;;;336.48;198.65;;;13.20;99.90;;;;;;5087458;28;20044;-85
2023/04/12 11:10:18;;;;;;;4.40;0.98;;;13.40;99.90;;;;;;5072339;28;20047;-86
2023/04/12 11:12:49;;;;;;;130.00;71.10;;;13.60;99.90;;;;;;5081868;28;20044;-87
2023/04/12 11:15:15;;;;;;;3.28;0.68;;;13.90;99.90;;;;;;5089710;28;20048;-86
2023/04/12 11:17:41;;;;;;;2.17;0.77;;;13.70;99.90;;;;;;5082571;28;20036;-85
2023/04/12 11:20:12;;;;;;;3.53;0.70;;;13.70;99.90;;;;;;5083551;28;20415;-86
2023/04/12 11:22:39;;;;;;;3.13;0.60;;;13.60;99.90;;;;;;5092817;28;20047;-86
2023/04/12 11:25:06;;;;;;;2.15;0.80;;;13.40;99.90;;;;;;5108613;28;20051;-84
2023/04/12 11:27:33;;;;;;;3.42;0.80;;;13.40;99.90;;;;;;5068063;28;20084;-85
2023/04/12 11:30:02;;;;;;;3.28;0.82;;;13.20;99.90;;;;;;5085451;28;20048;-86
2023/04/12 11:32:30;;;;;;;2.28;0.80;;;13.00;99.90;;;;;;5093184;28;20047;-85
2023/04/12 11:34:57;;;;;;;3.00;0.60;;;13.10;99.90;;;;;;5065088;28;20404;-86
2023/04/12 11:37:25;;;;;;;3.97;1.08;;;12.90;99.90;;;;;;5083970;28;20119;-86
2023/04/12 11:39:54;;;;;;;4.07;0.80;;;12.90;99.90;;;;;;5090956;28;20531;-84
2023/04/12 11:42:23;;;;;;;2.50;0.93;;;12.90;99.90;;;;;;5073059;28;20068;-87
2023/04/12 11:44:50;;;;;;;2.28;0.70;;;12.90;99.90;;;;;;5090371;28;20047;-85
2023/04/12 11:47:20;;;;;;;2.65;0.75;;;12.90;99.90;;;;;;5073826;28;20036;-86
2023/04/12 11:49:51;;;;;;;3.72;0.60;;;12.80;99.90;;;;;;5081740;28;20135;-88
2023/04/12 11:52:21;;;;;;;3.03;0.60;;;12.70;99.90;;;;;;5078286;28;20457;-88
2023/04/12 11:54:50;;;;;;;11.02;1.52;;;12.20;99.90;;;;;;5094390;28;20552;-88
2023/04/12 11:57:17;;;;;;;3.13;0.70;;;12.60;99.90;;;;;;5084213;28;20050;-84
2023/04/12 11:59:48;;;;;;;2.17;0.70;;;12.60;99.90;;;;;;5098151;28;20055;-89
2023/04/12 12:02:16;;;;;;;2.17;0.90;;;12.70;99.90;;;;;;5087084;28;20044;-85
2023/04/12 12:04:47;;;;;;;5.32;0.95;;;12.70;99.90;;;;;;5098061;28;20399;-87
2023/04/12 12:07:15;;;;;;;4.35;1.00;;;12.80;99.90;;;;;;5094927;28;20048;-85
2023/04/12 12:09:42;;;;;;;5.03;1.00;;;12.90;99.90;;;;;;5097448;28;20036;-86
2023/04/12 12:12:10;;;;;;;3.72;1.17;;;13.10;99.90;;;;;;5114951;28;20048;-85
2023/04/12 12:14:36;;;;;;;4.18;1.10;;;13.30;99.90;;;;;;5097394;28;20055;-85
2023/04/12 12:17:12;;;;;;;4.45;0.88;;;13.40;99.90;;;;;;5096756;28;20399;-85
2023/04/12 12:19:40;;;;;;;5.72;0.60;;;13.40;99.90;;;;;;5097797;28;20093;-84
2023/04/12 12:22:17;;;;;;;3.92;0.50;;;13.40;99.90;;;;;;5096609;28;20044;-85
2023/04/12 12:24:55;;;;;;;3.10;0.70;;;13.60;99.90;;;;;;5080792;28;20044;-84
2023/04/12 12:27:23;;;;;;;3.85;0.60;;;13.30;99.90;;;;;;5098726;28;20054;-85
2023/04/12 12:29:52;;;;;;;1.55;0.40;;;13.20;99.90;;;;;;5097465;28;20048;-85
2023/04/12 12:35:59;;;;;;;6.18;0.70;;;13.20;99.90;;;;;;5097727;28;20046;-84
2023/04/12 12:38:34;;;;;;;3.22;0.70;;;13.00;99.90;;;;;;5096043;28;20048;-86
2023/04/12 12:41:14;;;;;;;14.65;1.27;;;13.00;99.90;;;;;;5096970;28;20044;-84
2023/04/12 12:43:45;;;;;;;3.40;0.52;;;12.90;99.90;;;;;;5095662;28;20154;-86
2023/04/12 12:46:13;;;;;;;5.38;0.80;;;12.70;99.90;;;;;;5096781;28;20399;-85
2023/04/12 12:48:46;;;;;;;6.80;0.88;;;12.00;99.90;;;;;;5096881;28;20047;-84
2023/04/12 12:51:13;;;;;;;3.17;0.60;;;12.70;99.90;;;;;;5096684;28;20466;-84
2023/04/12 12:53:40;;;;;;;3.72;0.60;;;12.50;99.90;;;;;;5096621;28;20044;-84
2023/04/12 12:56:10;;;;;;;4.00;0.70;;;12.40;99.90;;;;;;5096408;28;20043;-86
2023/04/12 12:58:36;;;;;;;4.15;0.50;;;12.40;99.90;;;;;;5096342;28;20044;-84
2023/04/12 13:01:03;;;;;;;3.08;0.60;;;12.50;99.90;;;;;;5095457;28;20047;-85
2023/04/12 13:03:29;;;;;;;3.80;0.93;;;12.60;99.90;;;;;;5095141;28;20549;-85